createdAt,value
2023-05-23T00:00:06.781Z,2.63
2023-05-23T00:03:16.344Z,2.72
2023-05-23T00:06:21.471Z,3.13
2023-05-23T00:09:24.840Z,3.05
2023-05-23T00:12:28.053Z,2.87
2023-05-23T00:15:31.481Z,2.90
2023-05-23T00:18:35.808Z,2.92
2023-05-23T00:21:39.091Z,3.20
2023-05-23T00:24:45.961Z,3.30
2023-05-23T00:27:49.244Z,3.30
2023-05-23T00:30:52.804Z,3.27
2023-05-23T00:33:56.265Z,3.30
2023-05-23T00:36:59.874Z,3.95
2023-05-23T00:40:03.241Z,3.17
2023-05-23T00:43:08.353Z,3.30
2023-05-23T00:46:11.916Z,3.40
2023-05-23T00:49:15.840Z,3.13
2023-05-23T00:52:20.151Z,3.00
2023-05-23T00:55:25.145Z,3.20
2023-05-23T00:58:28.979Z,3.30
2023-05-23T01:01:33.349Z,3.07
2023-05-23T01:04:37.458Z,3.38
2023-05-23T01:07:41.625Z,3.10
2023-05-23T01:10:45.080Z,3.22
2023-05-23T01:14:05.010Z,3.17
2023-05-23T01:17:13.836Z,3.40
2023-05-23T01:20:23.216Z,4.05
2023-05-23T01:23:47.359Z,3.75
2023-05-23T01:27:17.395Z,3.40
2023-05-23T01:30:23.432Z,3.30
2023-05-23T01:33:28.640Z,3.27
2023-05-23T01:36:35.547Z,3.50
2023-05-23T01:39:39.229Z,3.53
2023-05-23T01:42:42.698Z,3.50
2023-05-23T01:45:46.220Z,3.93
2023-05-23T01:48:49.730Z,3.57
2023-05-23T01:51:53.471Z,4.28
2023-05-23T01:54:57.739Z,4.20
2023-05-23T01:58:03.025Z,4.10
2023-05-23T02:01:06.508Z,4.27
2023-05-23T02:04:10.201Z,4.13
2023-05-23T02:07:13.343Z,4.40
2023-05-23T02:10:16.652Z,4.35
2023-05-23T02:13:19.886Z,4.15
2023-05-23T02:16:23.413Z,4.53
2023-05-23T02:19:27.549Z,4.13
2023-05-23T02:22:30.821Z,4.18
2023-05-23T02:25:34.177Z,4.10
2023-05-23T02:28:37.484Z,4.18
2023-05-23T02:31:40.795Z,3.97
2023-05-23T02:34:46.661Z,4.40
2023-05-23T02:37:49.950Z,4.32
2023-05-23T02:40:53.804Z,4.13
2023-05-23T02:43:57.652Z,4.20
2023-05-23T02:47:01.298Z,3.90
2023-05-23T02:50:05.099Z,3.97
2023-05-23T02:53:08.608Z,4.15
2023-05-23T02:56:13.511Z,4.63
2023-05-23T02:59:17.999Z,4.10
2023-05-23T03:02:21.849Z,4.10
2023-05-23T03:05:25.087Z,4.27
2023-05-23T03:08:28.341Z,4.15
2023-05-23T03:11:31.573Z,4.15
2023-05-23T03:14:36.180Z,4.20
2023-05-23T03:17:39.452Z,3.87
2023-05-23T03:20:42.592Z,4.33
2023-05-23T03:23:45.843Z,4.10
2023-05-23T03:26:49.139Z,3.75
2023-05-23T03:29:52.470Z,4.20
2023-05-23T03:32:55.885Z,3.90
2023-05-23T03:35:59.211Z,3.50
2023-05-23T03:39:02.638Z,3.55
2023-05-23T03:42:06.066Z,2.95
2023-05-23T03:45:09.436Z,3.90
2023-05-23T03:48:12.921Z,3.13
2023-05-23T03:51:17.705Z,4.40
2023-05-23T03:54:21.108Z,3.70
2023-05-23T03:57:24.548Z,4.00
2023-05-23T04:00:28.361Z,3.95
2023-05-23T04:03:34.800Z,3.30
2023-05-23T04:06:39.710Z,3.00
2023-05-23T04:09:42.876Z,3.15
2023-05-23T04:12:47.958Z,3.40
2023-05-23T04:15:56.210Z,4.20
2023-05-23T04:19:00.252Z,2.70
2023-05-23T04:22:03.808Z,3.00
2023-05-23T04:25:07.583Z,3.15
2023-05-23T04:28:17.632Z,3.90
2023-05-23T04:31:22.449Z,3.80
2023-05-23T04:34:26.111Z,3.40
2023-05-23T04:37:33.029Z,3.60
2023-05-23T04:40:40.007Z,4.13
2023-05-23T04:43:54.594Z,3.83
2023-05-23T04:47:15.920Z,3.22
2023-05-23T04:50:33.341Z,3.47
2023-05-23T04:53:37.103Z,3.50
2023-05-23T04:56:40.760Z,3.78
2023-05-23T04:59:46.582Z,3.05
2023-05-23T05:02:49.996Z,3.33
2023-05-23T05:05:53.853Z,3.20
2023-05-23T05:08:57.630Z,3.60
2023-05-23T05:12:00.971Z,3.60
2023-05-23T05:15:05.633Z,3.75
2023-05-23T05:18:09.272Z,2.35
2023-05-23T05:21:12.604Z,3.40
2023-05-23T05:24:16.999Z,4.03
2023-05-23T05:27:39.482Z,3.17
2023-05-23T05:30:46.549Z,3.38
2023-05-23T05:33:50.756Z,3.53
2023-05-23T05:36:56.124Z,3.07
2023-05-23T05:40:06.453Z,2.67
2023-05-23T05:43:11.516Z,2.85
2023-05-23T05:46:15.424Z,3.25
2023-05-23T05:49:18.966Z,3.40
2023-05-23T05:52:22.957Z,3.20
2023-05-23T05:55:26.321Z,4.50
2023-05-23T05:58:31.711Z,4.40
2023-05-23T06:01:38.434Z,4.63
2023-05-23T06:04:45.854Z,3.63
2023-05-23T06:07:50.168Z,3.80
2023-05-23T06:10:53.663Z,3.67
2023-05-23T06:13:56.969Z,4.07
2023-05-23T06:17:00.706Z,3.22
2023-05-23T06:20:05.133Z,4.30
2023-05-23T06:23:09.494Z,4.57
2023-05-23T06:26:12.875Z,5.40
2023-05-23T06:29:16.244Z,2.80
2023-05-23T06:32:19.541Z,4.20
2023-05-23T06:35:22.921Z,2.42
2023-05-23T06:38:29.825Z,5.60
2023-05-23T06:41:33.151Z,2.50
2023-05-23T06:44:36.618Z,2.13
2023-05-23T06:47:43.842Z,3.40
2023-05-23T06:50:47.382Z,5.47
2023-05-23T06:53:51.486Z,5.63
2023-05-23T06:56:54.954Z,5.73
2023-05-23T06:59:58.350Z,5.97
2023-05-23T07:03:03.836Z,2.70
2023-05-23T07:06:08.143Z,6.38
2023-05-23T07:09:13.869Z,6.43
2023-05-23T07:12:17.918Z,6.20
2023-05-23T07:15:23.919Z,5.55
2023-05-23T07:18:38.428Z,5.40
2023-05-23T07:21:42.524Z,5.68
2023-05-23T07:24:46.736Z,5.67
2023-05-23T07:27:54.645Z,3.73
2023-05-23T07:30:58.903Z,5.82
2023-05-23T07:34:02.745Z,2.90
2023-05-23T07:37:16.032Z,3.13
2023-05-23T07:40:22.895Z,2.53
2023-05-23T07:43:26.185Z,3.73
2023-05-23T07:46:29.552Z,3.40
2023-05-23T07:49:33.054Z,3.75
2023-05-23T07:52:36.699Z,5.30
2023-05-23T07:55:42.345Z,3.67
2023-05-23T07:58:49.557Z,3.90
2023-05-23T08:05:13.460Z,2.88
2023-05-23T08:08:18.448Z,3.70
2023-05-23T08:11:22.192Z,3.73
2023-05-23T08:14:38.670Z,5.83
2023-05-23T08:17:58.982Z,5.30
2023-05-23T08:21:03.672Z,5.47
2023-05-23T08:24:07.402Z,4.70
2023-05-23T08:27:13.356Z,3.47
2023-05-23T08:30:17.672Z,5.90
2023-05-23T08:33:21.661Z,3.30
2023-05-23T08:36:26.482Z,3.03
2023-05-23T08:39:33.077Z,2.92
2023-05-23T08:43:06.133Z,3.13
2023-05-23T08:46:09.890Z,3.10
2023-05-23T08:49:18.095Z,4.63
2023-05-23T08:52:25.276Z,4.72
2023-05-23T08:55:31.063Z,4.65
2023-05-23T08:58:39.111Z,3.90
2023-05-23T09:01:43.476Z,3.30
2023-05-23T09:04:49.182Z,4.63
2023-05-23T09:07:57.937Z,4.60
2023-05-23T09:11:04.102Z,4.05
2023-05-23T09:14:10.172Z,3.60
2023-05-23T09:17:22.649Z,2.70
2023-05-23T09:20:29.170Z,3.58
2023-05-23T09:23:37.508Z,2.70
2023-05-23T09:26:40.967Z,4.43
2023-05-23T09:29:44.988Z,3.73
2023-05-23T09:33:04.649Z,4.10
2023-05-23T09:36:09.831Z,4.82
2023-05-23T09:39:15.341Z,3.67
2023-05-23T09:42:25.544Z,3.78
2023-05-23T09:45:32.757Z,3.37
2023-05-23T09:48:38.156Z,4.33
2023-05-23T09:51:56.721Z,4.38
2023-05-23T09:55:00.546Z,4.50
2023-05-23T09:58:05.694Z,3.33
2023-05-23T10:01:11.850Z,4.20
2023-05-23T10:04:23.564Z,4.50
2023-05-23T10:07:28.424Z,4.07
2023-05-23T10:10:35.771Z,4.28
2023-05-23T10:13:43.149Z,4.63
2023-05-23T10:16:46.593Z,3.83
2023-05-23T10:20:10.744Z,4.40
2023-05-23T10:23:14.330Z,2.88
2023-05-23T10:26:18.899Z,3.95
2023-05-23T10:29:23.866Z,3.30
2023-05-23T10:32:28.840Z,3.63
2023-05-23T10:35:42.646Z,3.37
2023-05-23T10:39:08.431Z,3.20
2023-05-23T10:42:19.529Z,4.03
2023-05-23T10:45:27.469Z,7.65
2023-05-23T10:48:35.808Z,4.00
2023-05-23T10:51:40.138Z,3.90
2023-05-23T10:54:51.996Z,4.00
2023-05-23T10:58:21.516Z,3.90
2023-05-23T11:01:26.997Z,3.35
2023-05-23T11:04:31.153Z,2.80
2023-05-23T11:07:34.974Z,3.60
2023-05-23T11:10:54.364Z,3.10
2023-05-23T11:14:03.124Z,3.05
2023-05-23T11:17:19.701Z,3.80
2023-05-23T11:20:27.569Z,3.10
2023-05-23T11:23:43.409Z,3.30
2023-05-23T11:26:55.327Z,3.85
2023-05-23T11:30:09.443Z,3.50
2023-05-23T11:33:15.053Z,3.13
2023-05-23T11:36:18.488Z,2.93
2023-05-23T11:39:22.334Z,4.07
2023-05-23T11:42:26.033Z,3.58
2023-05-23T11:45:34.160Z,3.65
2023-05-23T11:48:44.477Z,3.65
2023-05-23T11:51:47.806Z,3.67
2023-05-23T11:54:52.879Z,3.37
2023-05-23T11:58:01.364Z,3.70
2023-05-23T12:01:05.465Z,3.60
2023-05-23T12:04:13.065Z,3.40
2023-05-23T12:07:49.829Z,3.80
2023-05-23T12:10:58.913Z,3.80
2023-05-23T12:14:06.390Z,3.60
2023-05-23T12:17:09.977Z,3.65
2023-05-23T12:20:14.299Z,3.58
2023-05-23T12:23:42.146Z,3.43
2023-05-23T12:26:53.988Z,3.93
2023-05-23T12:30:16.964Z,3.70
2023-05-23T12:33:20.275Z,4.53
2023-05-23T12:36:27.916Z,3.90
2023-05-23T12:39:33.783Z,3.20
2023-05-23T12:42:54.961Z,3.50
2023-05-23T12:45:58.146Z,3.45
2023-05-23T12:49:07.009Z,5.07
2023-05-23T12:52:10.372Z,3.80
2023-05-23T12:55:14.371Z,2.93
2023-05-23T12:58:17.958Z,3.20
2023-05-23T13:01:21.657Z,3.92
2023-05-23T13:04:25.044Z,4.05
2023-05-23T13:07:28.442Z,4.57
2023-05-23T13:10:32.261Z,4.00
2023-05-23T13:13:43.263Z,6.10
2023-05-23T13:16:46.624Z,3.80
2023-05-23T13:19:49.998Z,3.45
2023-05-23T13:22:53.348Z,2.97
2023-05-23T13:25:58.157Z,3.30
2023-05-23T13:29:01.489Z,3.57
2023-05-23T13:32:06.074Z,3.13
2023-05-23T13:35:09.631Z,3.15
2023-05-23T13:38:13.095Z,3.25
2023-05-23T13:41:16.287Z,2.77
2023-05-23T13:44:19.612Z,3.10
2023-05-23T13:47:23.009Z,2.65
2023-05-23T13:50:26.520Z,3.00
2023-05-23T13:53:29.945Z,3.55
2023-05-23T13:56:33.768Z,3.70
2023-05-23T13:59:37.039Z,2.97
2023-05-23T14:02:40.401Z,3.00
2023-05-23T14:05:43.785Z,8.25
2023-05-23T14:08:47.156Z,2.90
2023-05-23T14:11:52.286Z,4.00
2023-05-23T14:14:55.610Z,3.30
2023-05-23T14:17:58.897Z,3.53
2023-05-23T14:21:02.288Z,3.15
2023-05-23T14:24:06.090Z,2.63
2023-05-23T14:27:11.075Z,3.17
2023-05-23T14:30:14.941Z,2.97
2023-05-23T14:33:18.300Z,2.75
2023-05-23T14:36:21.500Z,2.80
2023-05-23T14:39:25.669Z,3.17
2023-05-23T14:42:28.933Z,3.40
2023-05-23T14:45:32.282Z,2.60
2023-05-23T14:48:35.892Z,3.30
2023-05-23T14:54:45.365Z,2.65
2023-05-23T14:57:48.611Z,3.13
2023-05-23T15:00:52.327Z,2.60
2023-05-23T15:03:55.535Z,3.60
2023-05-23T15:06:58.900Z,3.83
2023-05-23T15:10:03.414Z,3.25
2023-05-23T15:13:06.735Z,5.10
2023-05-23T15:16:10.082Z,3.60
2023-05-23T15:19:13.434Z,3.35
2023-05-23T15:22:35.119Z,3.05
2023-05-23T15:25:49.668Z,3.30
2023-05-23T15:28:53.340Z,3.50
2023-05-23T15:31:56.676Z,3.40
2023-05-23T15:34:59.955Z,2.92
2023-05-23T15:38:03.259Z,2.63
2023-05-23T15:41:06.676Z,3.60
2023-05-23T15:44:12.611Z,3.70
2023-05-23T15:47:18.733Z,3.70
2023-05-23T15:50:22.011Z,3.80
2023-05-23T15:53:25.228Z,4.50
2023-05-23T15:56:28.493Z,4.03
2023-05-23T15:59:31.871Z,4.23
2023-05-23T16:02:35.117Z,3.93
2023-05-23T16:05:38.457Z,3.65
2023-05-23T16:08:41.882Z,3.58
2023-05-23T16:11:45.204Z,4.25
2023-05-23T16:14:48.510Z,3.50
2023-05-23T16:17:51.969Z,3.47
2023-05-23T16:20:57.136Z,3.53
2023-05-23T16:24:00.721Z,3.95
2023-05-23T16:27:04.558Z,3.50
2023-05-23T16:30:08.454Z,3.40
2023-05-23T16:33:11.964Z,3.70
2023-05-23T16:36:15.316Z,3.33
2023-05-23T16:39:18.644Z,3.60
2023-05-23T16:42:22.386Z,3.45
2023-05-23T16:45:25.631Z,3.23
2023-05-23T16:48:28.994Z,3.20
2023-05-23T16:51:32.301Z,3.33
2023-05-23T16:54:36.139Z,3.15
2023-05-23T16:57:39.900Z,4.00
2023-05-23T17:00:43.254Z,3.30
2023-05-23T17:03:47.260Z,3.17
2023-05-23T17:06:50.931Z,3.40
2023-05-23T17:09:54.076Z,3.30
2023-05-23T17:12:57.544Z,3.20
2023-05-23T17:16:01.435Z,3.07
2023-05-23T17:19:05.735Z,3.67
2023-05-23T17:22:09.085Z,3.35
2023-05-23T17:25:12.279Z,3.50
2023-05-23T17:28:15.619Z,3.78
2023-05-23T17:31:19.248Z,4.20
2023-05-23T17:34:22.652Z,3.70
2023-05-23T17:37:26.560Z,4.30
2023-05-23T17:40:29.962Z,4.45
2023-05-23T17:43:33.369Z,4.30
2023-05-23T17:46:36.762Z,5.07
2023-05-23T17:49:41.849Z,4.80
2023-05-23T17:52:45.688Z,4.60
2023-05-23T17:55:49.052Z,5.57
2023-05-23T17:58:52.707Z,5.00
2023-05-23T18:01:56.014Z,4.60
2023-05-23T18:04:59.292Z,4.70
2023-05-23T18:08:02.757Z,4.45
2023-05-23T18:11:05.955Z,4.50
2023-05-23T18:14:09.404Z,4.75
2023-05-23T18:17:13.092Z,4.77
2023-05-23T18:20:16.544Z,4.73
2023-05-23T18:23:19.857Z,4.38
2023-05-23T18:26:23.195Z,4.38
2023-05-23T18:29:26.505Z,4.10
2023-05-23T18:32:30.519Z,3.77
2023-05-23T18:35:33.968Z,4.07
2023-05-23T18:38:37.282Z,3.85
2023-05-23T18:41:45.488Z,4.15
2023-05-23T18:44:48.772Z,4.10
2023-05-23T18:47:54.994Z,3.87
2023-05-23T18:50:58.428Z,4.03
2023-05-23T18:54:01.682Z,4.88
2023-05-23T18:57:05.152Z,3.95
2023-05-23T19:00:10.761Z,4.10
2023-05-23T19:03:14.714Z,4.00
2023-05-23T19:06:18.188Z,4.10
2023-05-23T19:09:21.431Z,3.90
2023-05-23T19:12:24.698Z,4.18
2023-05-23T19:15:27.976Z,4.18
2023-05-23T19:18:31.800Z,4.00
2023-05-23T19:21:35.120Z,3.97
2023-05-23T19:24:38.957Z,4.30
2023-05-23T19:27:42.305Z,4.30
2023-05-23T19:30:45.590Z,3.97
2023-05-23T19:33:48.864Z,4.07
2023-05-23T19:36:52.086Z,4.17
2023-05-23T19:39:55.372Z,4.30
2023-05-23T19:42:58.613Z,4.00
2023-05-23T19:46:01.976Z,4.40
2023-05-23T19:49:08.891Z,4.33
2023-05-23T19:52:12.276Z,3.90
2023-05-23T19:55:16.049Z,3.63
2023-05-23T19:58:19.328Z,4.55
2023-05-23T20:01:22.569Z,3.47
2023-05-23T20:04:26.019Z,3.93
2023-05-23T20:07:29.285Z,4.30
2023-05-23T20:10:32.629Z,4.60
2023-05-23T20:13:37.735Z,4.03
2023-05-23T20:16:41.310Z,4.50
2023-05-23T20:19:44.638Z,4.30
2023-05-23T20:22:47.992Z,4.53
2023-05-23T20:25:51.812Z,4.50
2023-05-23T20:28:55.161Z,4.63
2023-05-23T20:31:58.396Z,4.60
2023-05-23T20:35:01.648Z,4.63
2023-05-23T20:38:05.029Z,4.80
2023-05-23T20:41:08.479Z,4.82
2023-05-23T20:44:11.992Z,5.70
2023-05-23T20:47:15.715Z,2.65
2023-05-23T20:50:19.175Z,2.13
2023-05-23T20:53:23.098Z,4.20
2023-05-23T20:56:27.369Z,3.78
2023-05-23T20:59:30.642Z,2.47
2023-05-23T21:02:33.906Z,2.58
2023-05-23T21:05:37.241Z,4.10
2023-05-23T21:08:40.429Z,4.17
2023-05-23T21:11:44.204Z,4.10
2023-05-23T21:14:47.368Z,4.53
2023-05-23T21:17:53.690Z,5.85
2023-05-23T21:20:56.880Z,6.20
2023-05-23T21:24:00.174Z,7.17
2023-05-23T21:27:03.635Z,8.13
2023-05-23T21:30:08.135Z,9.20
2023-05-23T21:33:11.617Z,11.13
2023-05-23T21:36:14.934Z,11.80
2023-05-23T21:39:18.227Z,14.20
2023-05-23T21:42:22.283Z,15.48
2023-05-23T21:45:25.496Z,19.13
2023-05-23T21:48:28.797Z,19.92
2023-05-23T21:51:32.418Z,17.63
2023-05-23T21:54:35.666Z,14.60
2023-05-23T21:57:38.887Z,13.18
2023-05-23T22:00:43.584Z,11.88
2023-05-23T22:03:46.939Z,12.38
2023-05-23T22:06:50.376Z,12.37
2023-05-23T22:09:54.574Z,10.90
2023-05-23T22:12:58.315Z,11.65
2023-05-23T22:16:01.585Z,10.90
2023-05-23T22:19:05.355Z,11.20
2023-05-23T22:22:09.879Z,11.40
2023-05-23T22:25:13.238Z,10.87
2023-05-23T22:28:16.532Z,11.63
2023-05-23T22:31:20.037Z,12.75
2023-05-23T22:34:23.335Z,11.52
2023-05-23T22:37:26.704Z,11.97
2023-05-23T22:40:29.920Z,11.53
2023-05-23T22:43:33.101Z,11.50
2023-05-23T22:46:39.053Z,11.45
2023-05-23T22:49:42.621Z,11.90
2023-05-23T22:52:45.846Z,12.47
2023-05-23T22:55:52.019Z,10.80
2023-05-23T22:58:55.240Z,12.85
2023-05-23T23:01:58.451Z,11.35
2023-05-23T23:05:01.688Z,11.10
2023-05-23T23:08:05.015Z,11.87
2023-05-23T23:11:08.279Z,11.13
2023-05-23T23:14:11.865Z,11.68
2023-05-23T23:17:15.159Z,11.05
2023-05-23T23:20:22.585Z,11.32
2023-05-23T23:23:26.046Z,11.07
2023-05-23T23:26:29.259Z,10.67
2023-05-23T23:29:32.508Z,10.82
2023-05-23T23:32:35.877Z,10.25
2023-05-23T23:35:39.431Z,10.10
2023-05-23T23:38:42.635Z,10.23
2023-05-23T23:41:45.838Z,10.50
2023-05-23T23:44:49.137Z,10.82
2023-05-23T23:47:52.392Z,11.05
2023-05-23T23:50:55.761Z,11.57
2023-05-23T23:53:59.316Z,10.40
2023-05-23T23:57:02.581Z,10.57
